Detall de PIREP

Printer-friendly versionPDF version

[2013/02/17 08:42:00]
Flight IATA:CT2111
Pilot Number:012
Company ICAO:CAT
Aircraft Type:F50/A
PAX:38
Aircraft Registration:PAOB
Departing Airport: LEST
Destination Airport: LEVC
Alternate Airport:LEPA
Online: VATSIM
Route:FORNO A33 ZMR A43 NVS DCT PDT M871 ABOSI
Flight Level:F240
No Slew and time accel
No pause
Crash detect
Detect pilot in Cockpit between each 30 and 45 minutes
08:42 Zero fuel Weight: 34926 Lbs, Fuel Weight: 4164 Lbs
08:42 VATSIM:LEST 170830Z 14008KT 8000 -RADZ FEW006 BKN026 08/06 Q1011 TEMPO 4000 RADZ
08:42 VATSIM:LEVC 170830Z 31004KT 9999 SCT018 12/07 Q1016 NOSIG
08:42 VOICE CATALONIAN
08:47 Parking Brakes off
08:52 Take-off
08:52 Take off Weight: 38987 Lbs
08:52 Wind: 124º @ 007 Knots Heading: 164º
08:52 POS N42º 54´ 05´´ W008º 25´ 00´´
08:52 Gear Up: 110 Knots
08:52 Flaps:2 at 110 Knots
08:53 Flaps:1 at 146 Knots
08:53 Flaps:0 at 156 Knots
09:07 Wind:210º@028 Knots Heading: 129º Ground Speed: 215 Knots Altitude 20095 ft
09:13 TOC
09:13 Fuel Weight: 3382 Lb
09:22 Wind:228º@022 Knots Heading: 129º Ground Speed: 258 Knots Altitude 23992 ft
09:37 Wind:245º@023 Knots Heading: 142º Ground Speed: 260 Knots Altitude 24035 ft
09:52 Wind:288º@019 Knots Heading: 140º Ground Speed: 269 Knots Altitude 24045 ft
10:07 Wind:316º@025 Knots Heading: 103º Ground Speed: 276 Knots Altitude 24051 ft
10:15 TOD
10:15 Fuel Weight: 1956 Lb
10:22 Wind:291º@008 Knots Heading: 100º Ground Speed: 277 Knots Altitude 14045 ft
10:33 Flaps:1 at 166 Knots
10:33 Flaps:2 at 155 Knots
10:34 Gear Down: 140 Knots
10:34 Flaps:3 at 140 Knots
10:34 Flaps:4 at 128 Knots
10:34 Flaps:5 at 111 Knots
10:34 Flaps:6 at 104 Knots
10:37 Wind:313º@003 Knots Heading: 115º Ground Speed: 107 Knots Altitude 295 ft
10:37 TouchDown:Rate -158 ft/min Speed: 96 Knots
10:37 Flaps:2 at 36 Knots
10:37 Flaps:0 at 36 Knots
10:37 VATSIM:LEVC 171030Z 00000KT 9999 FEW020 BKN050 14/08 Q1015 NOSIG
10:37 Land
10:37 Wind:313º@003 Knots
10:37 Heading: 114º
10:37 Flight Duration: 01:45
10:37 Landing Weight: 36507 Lbs
10:37 POS N39º 29´ 32´´ W000º 29´ 23´´
10:40 Parking brakes on
10:40 Block to Block Duration: 01:53
10:40 Final Fuel: 1552 Lbls
10:40 Spent Fuel: 2612 Lbls
10:40 Flight Length: 427 NM
10:40 TOD Land Length: 85 NM

Exportar CSV

Powered by Drupal - Modified by Danger4k